This is the latest recevied weather packets stored in our database for station/object W9WRP. If no packets are shown the sender has not sent any weather packets the latest 10 day(s).
| Time | Temp. | Humidity | Pressure | Rain* | Wind** | Luminosity | Snow |
|---|---|---|---|---|---|---|---|
| 1787548915 | 32.78° C | 36% | 1016.1 hPa | 0 mm | - | 0 W/m² | - |
| 1787548611 | 32.78° C | 36% | 1016.1 hPa | 0 mm | - | 0 W/m² | - |
| 1787548306 | 33.33° C | 35% | 1016.4 hPa | 0 mm | - | 0 W/m² | - |
| 1787548003 | 35.56° C | 30% | 1016.2 hPa | 0 mm | - | 0 W/m² | - |
| 1787547697 | 35.56° C | 23% | 1015.4 hPa | 0 mm | - | 0 W/m² | - |
| 1787547392 | 35.56° C | 23% | 1015 hPa | 0 mm | - | 0 W/m² | - |
| 1787547087 | 35.56° C | 23% | 1014.9 hPa | 0 mm | - | 0 W/m² | - |
| 1787546782 | 35.56° C | 23% | 1014.7 hPa | 0 mm | - | 0 W/m² | - |
| 1787546478 | 35.56° C | 23% | 1014.8 hPa | 0 mm | - | 0 W/m² | - |
| 1787546175 | 35.56° C | 23% | 1014.7 hPa | 0 mm | - | 0 W/m² | - |
| 1787545870 | 35.56° C | 23% | 1014.8 hPa | 0 mm | - | 0 W/m² | - |
| 1787545566 | 36.11° C | 22% | 1014.9 hPa | 0 mm | - | 0 W/m² | - |
| 1787545262 | 36.11° C | 22% | 1014.8 hPa | 0 mm | - | 0 W/m² | - |
| 1787544958 | 36.11° C | 21% | 1014.5 hPa | 0 mm | - | 0 W/m² | - |
| 1787544655 | 35.56° C | 21% | 1014.3 hPa | 0 mm | - | 0 W/m² | - |
| 1787544351 | 35° C | 23% | 1014.7 hPa | 0 mm | - | 0 W/m² | - |
| 1787544045 | 35° C | 24% | 1014.2 hPa | 0 mm | - | 0 W/m² | - |
| 1787543741 | 35° C | 24% | 1014.1 hPa | 0 mm | - | 0 W/m² | - |
| 1787543436 | 34.44° C | 25% | 1014.1 hPa | 0 mm | - | 0 W/m² | - |
| 1787543127 | 35° C | 24% | 1014.3 hPa | 0 mm | - | 0 W/m² | - |
| 1787542826 | 35° C | 24% | 1014.2 hPa | 0 mm | - | 0 W/m² | - |
| 1787542522 | 35.56° C | 24% | 1014.1 hPa | 0 mm | - | 0 W/m² | - |
| 1787542217 | 35.56° C | 23% | 1014.1 hPa | 0 mm | - | 0 W/m² | - |
| 1787541913 | 35.56° C | 23% | 1013.9 hPa | 0 mm | - | 0 W/m² | - |
| 1787541609 | 36.11° C | 23% | 1013.8 hPa | 0 mm | - | 0 W/m² | - |
* Rain latest hour (hover to see other rain measurements)
** Current wind speed in m/s (hover to see current wind gust speed)